Terminal Aerodrome Forecast
Issued by NWS

Home | Current Version | Previous Version | Text Only | Print | Product List | Glossary On
Versions: 1 2 3 4 5 6 7 8 9 10 11 12 13 14 15 16 17 18 19 20 21 22 23 24 25 26 27
000
FTUS41 KBUF 261508 AAB
TAFIAG
TAF AMD
KIAG 261508Z 2615/2712 27016G24KT P6SM BKN050
     FM262000 24016G22KT P6SM SCT050
     FM262300 22010KT P6SM BKN070
     FM270200 21011G22KT P6SM SCT070
     FM270500 22018G32KT P6SM SCT070=

USA.gov is the U.S. government's official web portal to all federal, state and local government web resources and services.